Terminal Aerodrome Forecast
Issued by NWS Bismarck, ND

Home | Current Version | Previous Version | Graphics & Text | Print | Product List | Glossary On
Versions: 1 2 3 4 5 6 7 8 9 10 11 12 13 14 15 16 17 18 19
000
FTUS43 KBIS 282300
TAFBIS
TAF
KBIS 282334Z 2900/2924 05012KT P6SM VCSH SCT008 OVC012
     FM290300 06011KT 3SM BR VCSH SCT004 OVC007
     FM291700 10012KT P6SM SCT007 OVC012
     FM292000 10013KT P6SM SCT012 BKN035=

USA.gov is the U.S. government's official web portal to all federal, state and local government web resources and services.